createdAt,value
2023-05-18T00:00:29.137Z,0.63
2023-05-18T00:02:59.078Z,0.50
2023-05-18T00:05:33.971Z,0.57
2023-05-18T00:08:01.757Z,0.55
2023-05-18T00:10:29.705Z,0.47
2023-05-18T00:12:57.500Z,0.30
2023-05-18T00:15:25.216Z,0.25
2023-05-18T00:17:53.432Z,0.43
2023-05-18T00:20:26.721Z,0.55
2023-05-18T00:22:54.647Z,0.30
2023-05-18T00:25:22.420Z,0.38
2023-05-18T00:27:51.880Z,1.00
2023-05-18T00:30:20.021Z,0.38
2023-05-18T00:32:47.780Z,0.20
2023-05-18T00:35:15.543Z,0.95
2023-05-18T00:37:44.612Z,0.40
2023-05-18T00:40:12.979Z,0.68
2023-05-18T00:42:40.720Z,0.75
2023-05-18T00:45:10.542Z,0.70
2023-05-18T00:47:38.328Z,0.60
2023-05-18T00:50:06.525Z,0.40
2023-05-18T00:52:34.521Z,0.45
2023-05-18T00:55:04.338Z,0.80
2023-05-18T00:57:32.286Z,0.38
2023-05-18T01:00:00.500Z,0.63
2023-05-18T01:02:30.415Z,0.60
2023-05-18T01:05:00.555Z,0.20
2023-05-18T01:07:28.287Z,0.52
2023-05-18T01:09:56.193Z,0.75
2023-05-18T01:12:30.678Z,0.65
2023-05-18T01:15:02.058Z,0.30
2023-05-18T01:17:33.606Z,0.60
2023-05-18T01:20:08.141Z,0.80
2023-05-18T01:22:39.414Z,0.55
2023-05-18T01:25:14.909Z,0.40
2023-05-18T01:27:46.469Z,0.80
2023-05-18T01:30:16.970Z,0.63
2023-05-18T01:32:47.197Z,0.90
2023-05-18T01:35:15.127Z,0.40
2023-05-18T01:37:42.830Z,0.52
2023-05-18T01:40:10.857Z,0.68
2023-05-18T01:42:40.731Z,0.60
2023-05-18T01:45:16.440Z,0.47
2023-05-18T01:47:46.677Z,0.40
2023-05-18T01:50:16.109Z,0.52
2023-05-18T01:52:44.869Z,0.57
2023-05-18T01:55:15.523Z,0.50
2023-05-18T01:57:44.159Z,0.38
2023-05-18T02:00:14.160Z,0.40
2023-05-18T02:02:44.603Z,0.20
2023-05-18T02:05:14.718Z,0.20
2023-05-18T02:07:44.014Z,0.52
2023-05-18T02:10:12.526Z,0.20
2023-05-18T02:12:40.269Z,0.75
2023-05-18T02:15:08.498Z,0.30
2023-05-18T02:17:38.991Z,0.30
2023-05-18T02:20:08.324Z,0.38
2023-05-18T02:22:36.257Z,0.73
2023-05-18T02:25:05.025Z,0.30
2023-05-18T02:27:33.428Z,0.50
2023-05-18T02:30:01.259Z,0.43
2023-05-18T02:32:29.017Z,0.85
2023-05-18T02:34:58.149Z,0.30
2023-05-18T02:37:28.317Z,0.73
2023-05-18T02:39:56.047Z,0.63
2023-05-18T02:42:23.825Z,0.65
2023-05-18T02:44:51.528Z,0.52
2023-05-18T02:47:19.495Z,0.70
2023-05-18T02:49:47.275Z,0.60
2023-05-18T02:52:16.932Z,0.70
2023-05-18T02:54:44.671Z,0.60
2023-05-18T02:57:18.357Z,0.75
2023-05-18T02:59:58.699Z,0.50
2023-05-18T03:02:27.932Z,0.40
2023-05-18T03:04:57.577Z,0.50
2023-05-18T03:07:27.588Z,0.20
2023-05-18T03:09:56.751Z,0.45
2023-05-18T03:12:24.518Z,0.63
2023-05-18T03:14:52.329Z,0.45
2023-05-18T03:17:20.038Z,0.35
2023-05-18T03:19:47.991Z,0.55
2023-05-18T03:22:16.024Z,0.50
2023-05-18T03:24:45.348Z,0.30
2023-05-18T03:27:18.339Z,0.55
2023-05-18T03:29:46.721Z,0.60
2023-05-18T03:32:14.962Z,0.68
2023-05-18T03:34:44.723Z,0.73
2023-05-18T03:37:12.824Z,0.50
2023-05-18T03:39:40.914Z,0.63
2023-05-18T03:42:10.078Z,0.30
2023-05-18T03:44:37.894Z,0.45
2023-05-18T03:47:06.209Z,0.65
2023-05-18T03:49:34.740Z,1.05
2023-05-18T03:52:04.354Z,0.65
2023-05-18T03:54:32.689Z,0.35
2023-05-18T03:57:00.921Z,0.40
2023-05-18T03:59:30.210Z,0.70
2023-05-18T04:01:57.976Z,0.70
2023-05-18T04:04:27.515Z,0.40
2023-05-18T04:06:55.808Z,0.75
2023-05-18T04:09:23.957Z,0.57
2023-05-18T04:11:51.720Z,0.52
2023-05-18T04:14:20.892Z,0.45
2023-05-18T04:16:50.133Z,0.43
2023-05-18T04:19:19.082Z,0.45
2023-05-18T04:21:47.427Z,0.50
2023-05-18T04:24:16.487Z,0.60
2023-05-18T04:26:44.367Z,0.95
2023-05-18T04:29:13.380Z,0.45
2023-05-18T04:31:44.709Z,0.68
2023-05-18T04:34:14.349Z,0.60
2023-05-18T04:36:43.909Z,0.45
2023-05-18T04:39:12.351Z,0.50
2023-05-18T04:41:42.297Z,0.65
2023-05-18T04:44:10.580Z,0.55
2023-05-18T04:46:40.763Z,0.55
2023-05-18T04:49:10.141Z,0.60
2023-05-18T04:51:39.658Z,0.73
2023-05-18T04:54:08.992Z,0.50
2023-05-18T04:56:36.894Z,0.70
2023-05-18T04:59:04.781Z,0.20
2023-05-18T05:01:32.582Z,0.95
2023-05-18T05:04:00.485Z,0.82
2023-05-18T05:06:28.622Z,0.50
2023-05-18T05:08:57.707Z,0.75
2023-05-18T05:11:25.451Z,0.50
2023-05-18T05:13:53.431Z,0.60
2023-05-18T05:16:21.365Z,0.82
2023-05-18T05:18:49.265Z,0.38
2023-05-18T05:21:17.665Z,0.57
2023-05-18T05:23:46.399Z,0.55
2023-05-18T05:26:15.684Z,1.02
2023-05-18T05:28:43.441Z,0.70
2023-05-18T05:31:11.201Z,0.50
2023-05-18T05:33:38.944Z,0.50
2023-05-18T05:36:08.250Z,0.63
2023-05-18T05:38:36.226Z,0.57
2023-05-18T05:41:04.539Z,0.55
2023-05-18T05:43:33.832Z,0.30
2023-05-18T05:46:02.367Z,0.25
2023-05-18T05:48:30.402Z,0.45
2023-05-18T05:50:59.133Z,0.60
2023-05-18T05:53:29.716Z,1.15
2023-05-18T05:55:57.848Z,0.70
2023-05-18T05:58:25.654Z,0.77
2023-05-18T06:00:59.934Z,0.60
2023-05-18T06:03:29.520Z,1.15
2023-05-18T06:06:00.325Z,0.50
2023-05-18T06:08:29.267Z,0.60
2023-05-18T06:10:57.966Z,0.60
2023-05-18T06:13:26.168Z,0.63
2023-05-18T06:15:58.092Z,0.40
2023-05-18T06:18:27.388Z,0.40
2023-05-18T06:20:59.903Z,0.52
2023-05-18T06:23:28.020Z,0.75
2023-05-18T06:26:04.801Z,0.50
2023-05-18T06:28:47.306Z,0.50
2023-05-18T06:31:33.702Z,0.47
2023-05-18T06:34:23.059Z,0.55
2023-05-18T06:36:51.968Z,0.68
2023-05-18T06:39:19.662Z,0.38
2023-05-18T06:41:47.501Z,0.40
2023-05-18T06:44:23.466Z,0.80
2023-05-18T06:47:05.914Z,0.88
2023-05-18T06:49:35.701Z,0.60
2023-05-18T06:52:03.718Z,0.43
2023-05-18T06:54:31.579Z,0.65
2023-05-18T06:57:00.300Z,0.38
2023-05-18T06:59:28.287Z,0.47
2023-05-18T07:01:56.182Z,0.47
2023-05-18T07:04:24.751Z,0.60
2023-05-18T07:06:55.853Z,0.95
2023-05-18T07:09:23.609Z,0.55
2023-05-18T07:11:51.319Z,0.40
2023-05-18T07:14:19.016Z,0.47
2023-05-18T07:16:47.514Z,0.43
2023-05-18T07:19:15.430Z,0.98
2023-05-18T07:21:43.189Z,0.73
2023-05-18T07:24:12.311Z,0.43
2023-05-18T07:26:40.049Z,0.40
2023-05-18T07:29:07.786Z,0.70
2023-05-18T07:31:39.028Z,0.63
2023-05-18T07:34:06.954Z,0.73
2023-05-18T07:36:34.789Z,0.80
2023-05-18T07:39:02.985Z,0.77
2023-05-18T07:41:32.369Z,0.60
2023-05-18T07:44:00.143Z,0.93
2023-05-18T07:46:27.940Z,0.93
2023-05-18T07:48:55.976Z,1.15
2023-05-18T07:51:23.791Z,1.05
2023-05-18T07:53:51.577Z,0.95
2023-05-18T07:56:19.303Z,1.02
2023-05-18T07:58:48.417Z,0.80
2023-05-18T08:01:16.164Z,1.00
2023-05-18T08:03:44.089Z,1.02
2023-05-18T08:06:11.885Z,1.33
2023-05-18T08:08:39.595Z,1.33
2023-05-18T08:11:07.284Z,1.00
2023-05-18T08:13:35.008Z,1.00
2023-05-18T08:18:38.034Z,1.10
2023-05-18T08:21:08.158Z,1.25
2023-05-18T08:23:36.047Z,1.17
2023-05-18T08:26:04.392Z,1.30
2023-05-18T08:28:32.173Z,1.45
2023-05-18T08:30:59.925Z,1.10
2023-05-18T08:33:29.484Z,1.38
2023-05-18T08:35:57.246Z,1.67
2023-05-18T08:38:24.976Z,1.52
2023-05-18T08:40:55.842Z,1.70
2023-05-18T08:45:59.867Z,1.23
2023-05-18T08:48:29.557Z,1.27
2023-05-18T08:50:59.310Z,1.23
2023-05-18T08:53:27.196Z,0.90
2023-05-18T08:55:55.421Z,1.30
2023-05-18T08:58:27.631Z,1.30
2023-05-18T09:00:55.984Z,1.70
2023-05-18T09:03:24.155Z,1.45
2023-05-18T09:05:53.757Z,1.42
2023-05-18T09:08:21.575Z,1.42
2023-05-18T09:10:49.402Z,1.50
2023-05-18T09:13:19.824Z,1.40
2023-05-18T09:15:47.630Z,1.40
2023-05-18T09:18:15.481Z,1.40
2023-05-18T09:20:43.197Z,2.15
2023-05-18T09:23:13.020Z,1.50
2023-05-18T09:25:44.942Z,1.88
2023-05-18T09:28:13.501Z,1.63
2023-05-18T09:30:42.097Z,1.45
2023-05-18T09:33:17.200Z,1.38
2023-05-18T09:35:45.783Z,1.77
2023-05-18T09:38:17.397Z,1.90
2023-05-18T09:40:45.468Z,1.52
2023-05-18T09:43:13.479Z,1.85
2023-05-18T09:45:43.794Z,1.40
2023-05-18T09:48:11.764Z,0.95
2023-05-18T09:50:39.498Z,1.10
2023-05-18T09:53:10.406Z,1.20
2023-05-18T09:55:45.445Z,1.13
2023-05-18T09:58:13.164Z,1.05
2023-05-18T10:00:43.430Z,0.93
2023-05-18T10:03:18.135Z,1.13
2023-05-18T10:05:46.042Z,1.33
2023-05-18T10:08:14.110Z,0.77
2023-05-18T10:10:44.514Z,0.98
2023-05-18T10:13:14.705Z,0.95
2023-05-18T10:15:48.039Z,0.77
2023-05-18T10:18:18.896Z,0.93
2023-05-18T10:20:47.836Z,0.70
2023-05-18T10:23:15.765Z,1.13
2023-05-18T10:25:45.911Z,0.98
2023-05-18T10:28:15.472Z,1.05
2023-05-18T10:30:43.585Z,1.20
2023-05-18T10:33:20.992Z,1.42
2023-05-18T10:35:53.112Z,1.20
2023-05-18T10:38:21.705Z,0.88
2023-05-18T10:40:51.907Z,1.20
2023-05-18T10:43:21.942Z,1.05
2023-05-18T10:45:54.018Z,1.30
2023-05-18T10:48:22.247Z,0.98
2023-05-18T10:50:50.976Z,1.65
2023-05-18T10:53:19.756Z,1.35
2023-05-18T10:55:48.396Z,1.45
2023-05-18T10:58:19.234Z,1.10
2023-05-18T11:00:49.441Z,0.88
2023-05-18T11:03:18.063Z,0.88
2023-05-18T11:05:49.686Z,0.75
2023-05-18T11:08:26.650Z,1.13
2023-05-18T11:11:00.864Z,1.23
2023-05-18T11:13:31.350Z,1.50
2023-05-18T11:16:09.795Z,1.40
2023-05-18T11:18:42.062Z,1.13
2023-05-18T11:21:22.733Z,0.98
2023-05-18T11:24:09.227Z,1.45
2023-05-18T11:26:40.002Z,1.35
2023-05-18T11:29:18.450Z,1.63
2023-05-18T11:31:46.395Z,1.70
2023-05-18T11:34:28.964Z,1.55
2023-05-18T11:36:57.458Z,1.83
2023-05-18T11:39:25.970Z,1.70
2023-05-18T11:42:00.268Z,1.67
2023-05-18T11:44:30.204Z,1.50
2023-05-18T11:47:02.291Z,1.40
2023-05-18T11:49:30.679Z,1.70
2023-05-18T11:52:02.176Z,1.10
2023-05-18T11:54:30.213Z,0.82
2023-05-18T11:56:59.631Z,1.38
2023-05-18T11:59:35.479Z,1.45
2023-05-18T12:02:03.784Z,1.25
2023-05-18T12:04:34.002Z,1.42
2023-05-18T12:07:05.730Z,1.00
2023-05-18T12:09:33.606Z,1.10
2023-05-18T12:12:02.407Z,1.23
2023-05-18T12:14:30.145Z,1.55
2023-05-18T12:17:00.015Z,1.08
2023-05-18T12:19:27.916Z,1.20
2023-05-18T12:21:57.267Z,1.23
2023-05-18T12:24:26.696Z,1.00
2023-05-18T12:26:54.386Z,0.82
2023-05-18T12:29:23.004Z,0.77
2023-05-18T12:31:50.791Z,0.70
2023-05-18T12:34:19.865Z,0.85
2023-05-18T12:36:54.602Z,0.85
2023-05-18T12:39:22.610Z,0.85
2023-05-18T12:41:50.385Z,0.70
2023-05-18T12:44:18.202Z,0.57
2023-05-18T12:46:46.046Z,0.60
2023-05-18T12:49:13.874Z,0.90
2023-05-18T12:51:42.931Z,0.63
2023-05-18T12:54:10.649Z,0.77
2023-05-18T12:56:51.976Z,0.82
2023-05-18T12:59:20.694Z,0.52
2023-05-18T13:01:49.089Z,0.77
2023-05-18T13:04:16.960Z,0.82
2023-05-18T13:06:46.204Z,1.35
2023-05-18T13:09:14.384Z,0.95
2023-05-18T13:11:42.334Z,0.60
2023-05-18T13:14:10.712Z,0.88
2023-05-18T13:16:39.609Z,0.50
2023-05-18T13:19:08.012Z,0.73
2023-05-18T13:21:36.816Z,1.10
2023-05-18T13:24:06.301Z,0.63
2023-05-18T13:26:34.056Z,0.60
2023-05-18T13:29:01.752Z,0.85
2023-05-18T13:31:30.270Z,0.47
2023-05-18T13:33:58.272Z,0.65
2023-05-18T13:36:26.342Z,0.93
2023-05-18T13:38:54.140Z,0.55
2023-05-18T13:41:23.277Z,1.33
2023-05-18T13:43:51.023Z,0.40
2023-05-18T13:46:20.119Z,1.27
2023-05-18T13:48:48.011Z,0.20
2023-05-18T13:51:16.145Z,0.82
2023-05-18T13:53:44.173Z,0.35
2023-05-18T13:56:11.880Z,0.25
2023-05-18T13:58:41.976Z,0.43
2023-05-18T14:01:12.754Z,0.90
2023-05-18T14:03:41.644Z,0.60
2023-05-18T14:06:09.891Z,0.70
2023-05-18T14:08:37.586Z,0.43
2023-05-18T14:11:05.428Z,0.40
2023-05-18T14:13:33.143Z,0.60
2023-05-18T14:16:02.212Z,0.57
2023-05-18T14:18:30.005Z,0.47
2023-05-18T14:21:02.341Z,0.32
2023-05-18T14:23:30.651Z,1.17
2023-05-18T14:25:58.340Z,0.52
2023-05-18T14:28:26.137Z,0.80
2023-05-18T14:30:53.922Z,0.55
2023-05-18T14:33:23.025Z,0.68
2023-05-18T14:35:50.740Z,0.43
2023-05-18T14:38:18.466Z,0.68
2023-05-18T14:40:46.191Z,0.68
2023-05-18T14:43:13.884Z,0.70
2023-05-18T14:45:41.671Z,0.70
2023-05-18T14:48:10.803Z,0.80
2023-05-18T14:50:40.221Z,0.80
2023-05-18T14:53:08.090Z,0.60
2023-05-18T14:55:35.931Z,0.95
2023-05-18T14:58:06.083Z,1.17
2023-05-18T15:00:34.230Z,0.80
2023-05-18T15:03:03.513Z,0.38
2023-05-18T15:05:31.352Z,0.73
2023-05-18T15:08:00.509Z,0.95
2023-05-18T15:10:28.622Z,0.30
2023-05-18T15:12:56.371Z,0.60
2023-05-18T15:15:26.422Z,0.32
2023-05-18T15:17:54.509Z,0.75
2023-05-18T15:20:23.648Z,0.52
2023-05-18T15:22:51.805Z,0.35
2023-05-18T15:25:20.961Z,0.93
2023-05-18T15:27:49.286Z,0.40
2023-05-18T15:30:17.014Z,0.40
2023-05-18T15:32:44.867Z,0.70
2023-05-18T15:35:12.598Z,0.57
2023-05-18T15:37:40.470Z,0.45
2023-05-18T15:40:08.964Z,0.60
2023-05-18T15:42:38.216Z,0.40
2023-05-18T15:45:06.474Z,0.80
2023-05-18T15:47:34.261Z,1.00
2023-05-18T15:50:02.071Z,0.57
2023-05-18T15:52:29.831Z,0.90
2023-05-18T15:54:58.839Z,0.73
2023-05-18T15:57:26.636Z,1.00
2023-05-18T15:59:55.776Z,0.50
2023-05-18T16:02:25.813Z,0.70
2023-05-18T16:04:54.243Z,1.27
2023-05-18T16:07:22.030Z,0.98
2023-05-18T16:09:49.774Z,0.80
2023-05-18T16:12:17.474Z,0.82
2023-05-18T16:14:45.209Z,0.85
2023-05-18T16:17:14.297Z,0.95
2023-05-18T16:19:42.020Z,1.20
2023-05-18T16:22:09.928Z,1.10
2023-05-18T16:24:37.679Z,1.15
2023-05-18T16:27:05.658Z,1.17
2023-05-18T16:29:33.457Z,1.23
2023-05-18T16:32:01.198Z,1.50
2023-05-18T16:34:30.366Z,1.60
2023-05-18T16:36:58.070Z,1.20
2023-05-18T16:39:27.250Z,1.27
2023-05-18T16:41:55.075Z,1.45
2023-05-18T16:44:22.820Z,1.50
2023-05-18T16:46:50.590Z,1.85
2023-05-18T16:49:19.141Z,1.55
2023-05-18T16:51:48.232Z,1.52
2023-05-18T16:54:15.939Z,1.80
2023-05-18T16:56:43.737Z,1.80
2023-05-18T16:59:11.554Z,1.38
2023-05-18T17:01:39.298Z,1.60
2023-05-18T17:04:07.209Z,1.70
2023-05-18T17:06:35.051Z,1.77
2023-05-18T17:09:06.315Z,1.40
2023-05-18T17:11:34.446Z,1.60
2023-05-18T17:14:03.132Z,1.38
2023-05-18T17:16:32.990Z,1.73
2023-05-18T17:19:00.884Z,1.33
2023-05-18T17:21:30.560Z,1.63
2023-05-18T17:23:58.338Z,1.65
2023-05-18T17:26:30.545Z,1.40
2023-05-18T17:28:58.450Z,1.35
2023-05-18T17:31:26.940Z,1.73
2023-05-18T17:33:54.776Z,1.58
2023-05-18T17:36:22.512Z,1.50
2023-05-18T17:38:50.281Z,1.67
2023-05-18T17:41:17.975Z,1.60
2023-05-18T17:43:47.051Z,1.33
2023-05-18T17:46:14.906Z,1.85
2023-05-18T17:48:42.606Z,1.65
2023-05-18T17:51:10.627Z,1.45
2023-05-18T17:53:42.077Z,2.17
2023-05-18T17:56:10.606Z,1.70
2023-05-18T17:58:39.312Z,1.48
2023-05-18T18:01:08.944Z,2.05
2023-05-18T18:03:37.374Z,1.95
2023-05-18T18:06:05.380Z,1.85
2023-05-18T18:08:33.356Z,2.10
2023-05-18T18:11:01.073Z,2.15
2023-05-18T18:13:29.159Z,2.10
2023-05-18T18:15:56.981Z,1.98
2023-05-18T18:18:26.466Z,2.55
2023-05-18T18:20:54.221Z,2.90
2023-05-18T18:23:21.982Z,3.08
2023-05-18T18:25:49.704Z,2.75
2023-05-18T18:28:17.429Z,3.08
2023-05-18T18:30:45.317Z,2.20
2023-05-18T18:33:14.156Z,2.10
2023-05-18T18:35:43.939Z,2.50
2023-05-18T18:38:12.874Z,2.10
2023-05-18T18:40:40.742Z,2.20
2023-05-18T18:43:08.497Z,2.45
2023-05-18T18:45:36.219Z,1.98
2023-05-18T18:48:04.002Z,2.10
2023-05-18T18:50:32.006Z,1.75
2023-05-18T18:53:01.225Z,2.05
2023-05-18T18:55:29.017Z,1.73
2023-05-18T18:57:59.473Z,1.83
2023-05-18T19:00:27.464Z,1.73
2023-05-18T19:02:55.323Z,1.23
2023-05-18T19:05:24.341Z,1.08
2023-05-18T19:07:55.533Z,0.80
2023-05-18T19:10:25.425Z,0.70
2023-05-18T19:12:53.163Z,0.73
2023-05-18T19:15:22.269Z,0.30
2023-05-18T19:17:53.541Z,0.70
2023-05-18T19:20:21.931Z,0.90
2023-05-18T19:22:49.703Z,1.02
2023-05-18T19:25:17.501Z,0.75
2023-05-18T19:27:46.586Z,0.70
2023-05-18T19:30:16.524Z,0.80
2023-05-18T19:32:44.289Z,0.95
2023-05-18T19:35:12.089Z,0.73
2023-05-18T19:37:39.848Z,0.70
2023-05-18T19:40:08.268Z,0.73
2023-05-18T19:42:36.058Z,0.52
2023-05-18T19:45:05.492Z,0.63
2023-05-18T19:47:33.310Z,0.50
2023-05-18T19:50:01.417Z,0.40
2023-05-18T19:52:29.227Z,0.32
2023-05-18T19:54:57.261Z,0.50
2023-05-18T19:57:26.458Z,1.33
2023-05-18T19:59:54.150Z,0.60
2023-05-18T20:02:23.225Z,0.43
2023-05-18T20:04:51.589Z,0.70
2023-05-18T20:07:20.393Z,1.08
2023-05-18T20:09:48.118Z,0.70
2023-05-18T20:12:15.835Z,0.63
2023-05-18T20:14:43.835Z,0.52
2023-05-18T20:17:11.654Z,0.63
2023-05-18T20:19:40.780Z,0.50
2023-05-18T20:22:10.903Z,0.52
2023-05-18T20:24:38.616Z,0.75
2023-05-18T20:27:06.597Z,1.05
2023-05-18T20:29:34.461Z,0.50
2023-05-18T20:32:02.139Z,0.50
2023-05-18T20:34:29.775Z,0.52
2023-05-18T20:36:58.765Z,0.82
2023-05-18T20:39:28.591Z,0.38
2023-05-18T20:41:57.678Z,0.45
2023-05-18T20:44:27.858Z,0.95
2023-05-18T20:46:55.477Z,0.55
2023-05-18T20:49:24.865Z,0.28
2023-05-18T20:51:52.657Z,0.30
2023-05-18T20:54:22.200Z,0.70
2023-05-18T20:56:51.239Z,0.75
2023-05-18T20:59:19.168Z,0.52
2023-05-18T21:01:48.014Z,0.95
2023-05-18T21:04:17.275Z,0.63
2023-05-18T21:06:49.142Z,0.35
2023-05-18T21:09:16.817Z,0.45
2023-05-18T21:11:45.841Z,0.70
2023-05-18T21:14:13.603Z,0.82
2023-05-18T21:16:41.581Z,0.52
2023-05-18T21:19:09.468Z,0.55
2023-05-18T21:21:37.250Z,0.80
2023-05-18T21:24:05.035Z,0.30
2023-05-18T21:26:32.760Z,0.35
2023-05-18T21:29:01.867Z,0.80
2023-05-18T21:31:29.715Z,0.55
2023-05-18T21:33:57.472Z,0.30
2023-05-18T21:36:33.579Z,0.60
2023-05-18T21:39:01.694Z,0.32
2023-05-18T21:41:29.388Z,0.93
2023-05-18T21:43:57.749Z,0.30
2023-05-18T21:46:27.036Z,0.63
2023-05-18T21:48:54.929Z,0.50
2023-05-18T21:51:22.685Z,1.02
2023-05-18T21:53:50.481Z,0.60
2023-05-18T21:56:18.274Z,0.60
2023-05-18T21:58:46.088Z,0.20
2023-05-18T22:01:13.882Z,1.00
2023-05-18T22:03:43.090Z,0.63
2023-05-18T22:06:10.871Z,0.55
2023-05-18T22:08:39.430Z,0.82
2023-05-18T22:11:07.144Z,0.63
2023-05-18T22:13:34.863Z,0.40
2023-05-18T22:16:02.522Z,0.55
2023-05-18T22:18:30.223Z,0.45
2023-05-18T22:20:59.462Z,0.75
2023-05-18T22:23:27.651Z,0.80
2023-05-18T22:25:55.374Z,0.55
2023-05-18T22:28:23.083Z,0.60
2023-05-18T22:30:51.019Z,0.73
2023-05-18T22:33:18.779Z,0.65
2023-05-18T22:35:48.032Z,0.95
2023-05-18T22:38:17.925Z,0.40
2023-05-18T22:40:46.183Z,0.77
2023-05-18T22:43:13.861Z,0.93
2023-05-18T22:45:41.559Z,0.50
2023-05-18T22:48:09.335Z,0.75
2023-05-18T22:50:37.201Z,1.48
2023-05-18T22:53:05.010Z,0.43
2023-05-18T22:55:34.184Z,0.70
2023-05-18T22:58:01.878Z,0.65
2023-05-18T23:00:29.638Z,0.75
2023-05-18T23:02:57.620Z,0.75
2023-05-18T23:05:25.460Z,0.60
2023-05-18T23:07:53.400Z,1.13
2023-05-18T23:10:21.125Z,1.05
2023-05-18T23:12:50.572Z,0.50
2023-05-18T23:15:18.510Z,0.47
2023-05-18T23:17:46.303Z,1.63
2023-05-18T23:20:14.040Z,1.00
2023-05-18T23:22:41.772Z,0.75
2023-05-18T23:25:09.972Z,0.47
2023-05-18T23:27:37.711Z,0.77
2023-05-18T23:30:09.902Z,0.73
2023-05-18T23:32:38.466Z,0.88
2023-05-18T23:35:06.827Z,0.75
2023-05-18T23:37:37.120Z,0.93
2023-05-18T23:40:05.456Z,0.93
2023-05-18T23:42:33.492Z,0.65
2023-05-18T23:45:01.548Z,0.45
2023-05-18T23:47:30.945Z,0.73
2023-05-18T23:49:58.972Z,0.88
2023-05-18T23:52:27.747Z,0.68
2023-05-18T23:54:55.906Z,0.95
2023-05-18T23:57:24.936Z,0.60
2023-05-18T23:59:52.868Z,0.60
